Time;durP1;ratioP1;P1;durP2;ratioP2;P2;SDS_P1;SDS_P2;PMS_P1;PMS_P2;Temp;Humidity;BMP_temperature;BMP_pressure;BME280_temperature;BME280_humidity;BME280_pressure;Samples;Min_cycle;Max_cycle;Signal;HPM_P1;HPM_P2
2021/07/17 00:00:27;;;;;;;110.68;12.85;;;;;;;20.11;88.28;98293.44;5070869;28;20037;-71
2021/07/17 00:02:53;;;;;;;119.13;13.48;;;;;;;20.19;87.87;98294.53;5068803;28;20119;-72
2021/07/17 00:05:18;;;;;;;118.75;14.30;;;;;;;19.84;89.90;98295.38;5067246;28;20031;-71
2021/07/17 00:07:45;;;;;;;141.70;13.90;;;;;;;19.98;89.04;98306.75;5069908;28;20039;-72
2021/07/17 00:10:19;;;;;;;106.15;11.60;;;;;;;20.34;87.50;98307.56;5070224;28;20115;-72
2021/07/17 00:12:45;;;;;;;111.70;10.80;;;;;;;20.29;87.78;98299.13;5072319;28;20056;-73
2021/07/17 00:15:12;;;;;;;95.70;12.95;;;;;;;20.16;88.48;98305.38;5068234;28;20119;-71
2021/07/17 00:17:38;;;;;;;139.25;13.43;;;;;;;20.05;89.87;98307.97;5068114;28;20035;-72
2021/07/17 00:20:09;;;;;;;112.93;13.32;;;;;;;19.88;90.79;98297.81;5069962;28;20032;-71
2021/07/17 00:22:34;;;;;;;114.25;13.27;;;;;;;19.92;90.81;98301.91;5070492;28;20056;-71
2021/07/17 00:24:59;;;;;;;120.30;14.00;;;;;;;19.67;92.83;98303.69;5068603;28;20431;-73
2021/07/17 00:27:25;;;;;;;97.82;12.38;;;;;;;19.41;93.37;98303.81;5069229;28;20039;-72
2021/07/17 00:29:50;;;;;;;119.45;13.65;;;;;;;19.37;93.30;98307.63;5070395;28;20079;-71
2021/07/17 00:32:15;;;;;;;116.07;13.02;;;;;;;19.35;93.57;98312.16;5069288;28;20609;-72
2021/07/17 00:34:41;;;;;;;115.25;12.85;;;;;;;19.19;93.22;98314.25;5069596;28;20494;-72
2021/07/17 00:37:06;;;;;;;115.88;13.15;;;;;;;19.24;93.82;98309.44;5069691;28;20443;-73
2021/07/17 00:39:31;;;;;;;97.78;12.80;;;;;;;19.30;94.07;98314.31;5072150;28;20700;-72
2021/07/17 00:41:57;;;;;;;114.82;13.73;;;;;;;18.95;95.51;98311.50;5068229;28;20401;-72
2021/07/17 00:44:22;;;;;;;123.35;13.77;;;;;;;19.03;95.27;98315.31;5069673;28;20031;-72
2021/07/17 00:46:50;;;;;;;109.85;13.13;;;;;;;18.95;95.76;98314.16;5069840;28;20036;-71
2021/07/17 00:49:20;;;;;;;126.45;14.05;;;;;;;18.96;96.32;98308.75;5071328;28;20528;-72
2021/07/17 00:51:46;;;;;;;117.03;13.18;;;;;;;19.01;95.71;98311.94;5069103;28;20052;-72
2021/07/17 00:54:17;;;;;;;85.20;12.70;;;;;;;19.00;95.88;98304.09;5068453;28;20108;-72
2021/07/17 00:56:43;;;;;;;127.83;14.07;;;;;;;18.90;97.66;98292.50;5068080;28;20489;-71
2021/07/17 00:59:10;;;;;;;106.28;13.85;;;;;;;18.93;97.66;98297.56;5067222;28;20733;-72
2021/07/17 01:01:35;;;;;;;135.32;14.63;;;;;;;19.06;96.03;98293.13;5066100;28;20086;-71
2021/07/17 01:04:00;;;;;;;124.38;13.80;;;;;;;19.09;96.08;98297.31;5068608;28;20028;-72
2021/07/17 01:06:26;;;;;;;122.45;13.88;;;;;;;18.84;98.14;98299.06;5069871;28;20036;-71
2021/07/17 01:08:51;;;;;;;114.63;13.23;;;;;;;18.91;97.38;98305.59;5068366;28;20029;-72
2021/07/17 01:11:17;;;;;;;141.43;14.40;;;;;;;19.03;96.58;98296.81;5069035;28;20048;-71
2021/07/17 01:13:42;;;;;;;117.90;13.05;;;;;;;19.17;95.98;98300.25;5068915;28;20028;-72
2021/07/17 01:16:07;;;;;;;118.90;12.77;;;;;;;19.13;95.91;98289.06;5066977;28;20127;-70
2021/07/17 01:19:03;;;;;;;100.72;12.98;;;;;;;19.12;95.08;98297.13;5063379;27;20970;-72
2021/07/17 01:21:28;;;;;;;102.05;13.48;;;;;;;19.03;95.55;98288.03;5042074;28;20049;-72
2021/07/17 01:23:56;;;;;;;102.72;13.35;;;;;;;18.96;96.38;98292.91;5030855;28;20032;-71
2021/07/17 01:26:22;;;;;;;109.35;14.05;;;;;;;19.02;96.00;98292.50;5030069;28;20037;-72
2021/07/17 01:28:47;;;;;;;115.03;13.85;;;;;;;19.36;93.58;98290.06;5030365;28;20029;-71
2021/07/17 01:31:14;;;;;;;95.88;12.93;;;;;;;19.42;92.47;98288.75;5028689;28;20037;-74
2021/07/17 01:33:41;;;;;;;105.93;13.40;;;;;;;19.21;93.39;98297.28;5030440;28;20025;-71
2021/07/17 01:36:06;;;;;;;102.45;13.40;;;;;;;19.21;93.07;98296.47;5028697;28;20026;-73
2021/07/17 01:38:32;;;;;;;88.13;12.90;;;;;;;19.28;92.70;98287.13;5029405;28;20111;-71
2021/07/17 01:40:57;;;;;;;102.13;14.07;;;;;;;18.83;95.83;98282.34;5031753;28;20454;-70
2021/07/17 01:43:23;;;;;;;106.13;13.93;;;;;;;18.98;95.25;98280.41;5031412;28;20104;-71
2021/07/17 01:45:48;;;;;;;108.22;12.98;;;;;;;18.80;95.32;98277.28;5029261;28;20044;-72
2021/07/17 01:48:14;;;;;;;110.07;13.35;;;;;;;18.71;96.64;98287.63;5030274;28;20025;-72
2021/07/17 01:50:41;;;;;;;105.82;13.98;;;;;;;18.74;96.59;98287.41;5028812;28;20044;-74
2021/07/17 01:53:09;;;;;;;97.20;14.00;;;;;;;18.76;96.41;98282.88;5029908;28;20029;-73
2021/07/17 01:55:35;;;;;;;95.18;13.40;;;;;;;18.79;95.64;98282.66;5027840;28;20045;-73
2021/07/17 01:58:01;;;;;;;93.70;13.38;;;;;;;18.91;94.89;98271.22;5029458;28;20032;-73
2021/07/17 02:00:27;;;;;;;96.40;13.70;;;;;;;19.10;93.85;98278.72;5029142;28;20045;-72
2021/07/17 02:02:53;;;;;;;94.18;13.95;;;;;;;18.82;95.70;98277.16;5029787;28;20033;-72
2021/07/17 02:05:19;;;;;;;109.47;14.23;;;;;;;18.71;96.57;98274.41;5027718;28;20354;-72
2021/07/17 02:07:45;;;;;;;88.60;13.05;;;;;;;18.96;95.09;98276.22;5029351;28;20832;-73
2021/07/17 02:10:32;;;;;;;80.75;12.13;;;;;;;19.16;94.24;98266.84;5026373;28;20117;-73
2021/07/17 02:13:24;;;;;;;104.40;13.07;;;;;;;19.29;93.16;98267.66;5030603;28;20034;-72
2021/07/17 02:15:56;;;;;;;97.38;13.02;;;;;;;19.18;92.28;98281.63;5028004;28;20443;-72
2021/07/17 02:18:32;;;;;;;89.90;13.15;;;;;;;18.90;94.53;98277.50;5027804;28;20029;-73
2021/07/17 02:21:03;;;;;;;89.65;11.93;;;;;;;19.19;92.52;98287.78;5028283;28;20049;-73
2021/07/17 02:23:29;;;;;;;103.90;13.05;;;;;;;19.07;93.75;98278.94;5030926;28;20104;-72
2021/07/17 02:25:54;;;;;;;100.55;13.15;;;;;;;18.92;94.14;98286.16;5030569;28;20136;-72
2021/07/17 02:28:20;;;;;;;110.05;14.02;;;;;;;18.75;94.31;98283.81;5026803;28;20514;-72
2021/07/17 02:30:47;;;;;;;105.47;13.82;;;;;;;18.70;94.52;98286.78;5015327;28;20559;-73
2021/07/17 02:33:12;;;;;;;115.57;13.63;;;;;;;18.68;95.30;98284.25;5017050;28;20029;-73
2021/07/17 02:35:38;;;;;;;113.18;13.55;;;;;;;18.67;94.73;98285.22;5016250;28;20033;-73
2021/07/17 02:38:03;;;;;;;100.35;13.40;;;;;;;18.64;95.31;98266.91;5015307;28;20021;-73
2021/07/17 02:40:29;;;;;;;100.10;13.20;;;;;;;18.53;96.63;98274.75;5015335;28;20121;-72
2021/07/17 02:42:54;;;;;;;94.22;13.82;;;;;;;18.47;97.26;98276.03;5015581;28;20092;-73
2021/07/17 02:45:20;;;;;;;114.80;14.75;;;;;;;18.20;100.00;98277.91;5015155;28;20028;-72
2021/07/17 02:47:45;;;;;;;129.50;15.63;;;;;;;18.32;99.86;98273.56;5015668;28;20025;-73
2021/07/17 02:50:11;;;;;;;112.43;14.32;;;;;;;18.43;99.32;98274.53;5015470;28;20029;-72
2021/07/17 02:52:40;;;;;;;115.70;14.38;;;;;;;18.47;99.15;98272.50;5054355;28;20051;-72
2021/07/17 02:55:06;;;;;;;108.15;14.25;;;;;;;18.38;100.00;98270.50;5033524;28;20505;-71
2021/07/17 02:57:31;;;;;;;94.97;14.13;;;;;;;18.29;100.00;98272.84;5030625;28;20120;-71
2021/07/17 02:59:57;;;;;;;94.40;14.38;;;;;;;18.17;100.00;98265.75;5034063;28;20025;-71
2021/07/17 03:02:23;;;;;;;117.25;14.70;;;;;;;18.19;100.00;98263.84;5034576;28;20036;-71
2021/07/17 03:04:48;;;;;;;104.93;14.20;;;;;;;18.17;100.00;98257.81;5034974;28;20037;-72
2021/07/17 03:07:13;;;;;;;114.38;15.27;;;;;;;18.04;100.00;98268.38;5032760;28;20111;-72
2021/07/17 03:09:39;;;;;;;118.05;14.68;;;;;;;18.06;100.00;98270.91;5036381;28;20025;-72
2021/07/17 03:12:06;;;;;;;105.85;15.45;;;;;;;17.98;100.00;98255.59;5037205;28;20045;-71
2021/07/17 03:14:31;;;;;;;103.32;15.07;;;;;;;18.14;100.00;98247.50;5035528;28;20163;-71
2021/07/17 03:16:57;;;;;;;112.40;15.52;;;;;;;18.40;100.00;98250.97;5033088;28;20072;-72
2021/07/17 03:19:22;;;;;;;99.90;14.95;;;;;;;18.42;100.00;98256.16;5035347;28;20064;-74
2021/07/17 03:21:47;;;;;;;126.40;15.00;;;;;;;18.73;98.75;98269.84;5037164;28;20112;-72
2021/07/17 03:24:13;;;;;;;101.60;13.45;;;;;;;18.90;97.13;98272.19;5034838;28;20033;-72
2021/07/17 03:26:38;;;;;;;104.28;15.20;;;;;;;18.71;98.75;98274.41;5033877;28;20131;-72
2021/07/17 03:29:03;;;;;;;108.20;14.93;;;;;;;18.47;100.00;98275.16;5034066;28;20138;-71
2021/07/17 03:31:31;;;;;;;108.68;14.88;;;;;;;18.63;100.00;98270.50;5034204;28;20131;-72
2021/07/17 03:33:57;;;;;;;105.72;14.82;;;;;;;18.58;100.00;98283.22;5034188;28;20036;-71
2021/07/17 03:36:23;;;;;;;117.32;15.77;;;;;;;18.50;100.00;98281.06;5035122;28;20041;-71
2021/07/17 03:38:48;;;;;;;110.22;15.48;;;;;;;18.57;100.00;98278.84;5032591;28;20394;-71
2021/07/17 03:41:14;;;;;;;120.43;15.52;;;;;;;18.56;100.00;98281.59;5032684;28;20115;-72
2021/07/17 03:43:39;;;;;;;112.55;15.38;;;;;;;18.47;100.00;98285.72;5034455;28;20028;-71
2021/07/17 03:46:05;;;;;;;110.13;15.57;;;;;;;18.57;100.00;98281.50;5033696;28;20044;-72
2021/07/17 03:48:30;;;;;;;100.90;15.57;;;;;;;18.40;100.00;98289.75;5033982;28;20139;-71
2021/07/17 03:50:56;;;;;;;100.95;15.63;;;;;;;18.29;100.00;98287.84;5035007;28;20053;-72
2021/07/17 03:53:21;;;;;;;103.97;16.13;;;;;;;18.36;100.00;98285.63;5032823;28;20033;-73
2021/07/17 03:55:46;;;;;;;115.15;16.08;;;;;;;18.32;100.00;98292.06;5033816;28;20093;-71
2021/07/17 03:58:12;;;;;;;113.35;15.52;;;;;;;18.25;100.00;98289.84;5033592;28;20021;-71
2021/07/17 04:00:37;;;;;;;99.43;15.30;;;;;;;18.40;100.00;98293.25;5032826;28;20033;-71
2021/07/17 04:03:04;;;;;;;125.93;17.30;;;;;;;18.40;100.00;98293.25;5033959;28;20152;-72
2021/07/17 04:05:30;;;;;;;113.95;16.52;;;;;;;18.61;100.00;98298.81;5034535;28;20652;-72
2021/07/17 04:07:55;;;;;;;103.93;16.27;;;;;;;18.56;100.00;98295.66;5034104;28;20021;-74
2021/07/17 04:10:20;;;;;;;104.32;15.52;;;;;;;18.60;100.00;98306.84;5032853;28;20059;-71
2021/07/17 04:12:46;;;;;;;116.90;15.57;;;;;;;18.54;100.00;98302.84;5032307;28;20118;-70
2021/07/17 04:15:11;;;;;;;108.38;15.77;;;;;;;18.55;100.00;98304.53;5032225;28;20627;-70
2021/07/17 04:17:37;;;;;;;139.27;16.98;;;;;;;18.39;100.00;98304.72;5031232;28;20021;-72
2021/07/17 04:20:05;;;;;;;100.47;15.95;;;;;;;18.52;100.00;98303.91;5032723;28;20037;-71
2021/07/17 04:22:30;;;;;;;103.15;15.55;;;;;;;18.78;100.00;98310.84;5033549;28;20037;-71
2021/07/17 04:24:55;;;;;;;100.00;14.90;;;;;;;18.78;100.00;98304.72;5034516;28;20032;-72
2021/07/17 04:27:21;;;;;;;114.70;16.42;;;;;;;18.55;100.00;98309.81;5034735;28;20557;-72
2021/07/17 04:29:46;;;;;;;110.78;16.27;;;;;;;18.76;100.00;98307.47;5033000;28;20037;-71
2021/07/17 04:32:11;;;;;;;106.00;15.43;;;;;;;18.76;100.00;98314.56;5032411;28;20041;-71
2021/07/17 04:34:37;;;;;;;119.80;15.95;;;;;;;18.88;100.00;98317.22;5032786;28;20091;-74
2021/07/17 04:37:02;;;;;;;114.07;16.85;;;;;;;18.79;100.00;98327.59;5035005;28;20033;-71
2021/07/17 04:39:27;;;;;;;93.32;15.07;;;;;;;18.71;100.00;98321.97;5033131;28;20037;-74
2021/07/17 04:41:53;;;;;;;112.47;16.80;;;;;;;18.77;100.00;98319.75;5031235;28;20045;-72
2021/07/17 04:44:18;;;;;;;105.32;16.58;;;;;;;18.83;100.00;98323.78;5032849;28;20028;-73
2021/07/17 04:46:44;;;;;;;105.55;15.27;;;;;;;18.80;100.00;98323.97;5031380;28;20568;-73
2021/07/17 04:49:09;;;;;;;107.65;16.20;;;;;;;18.77;100.00;98319.75;5034652;28;20021;-70
2021/07/17 04:51:34;;;;;;;131.70;17.50;;;;;;;18.79;100.00;98322.28;5031098;28;20045;-73
2021/07/17 04:54:00;;;;;;;100.20;15.80;;;;;;;18.84;100.00;98317.56;5033445;28;20139;-75
2021/07/17 04:56:25;;;;;;;99.63;16.27;;;;;;;18.93;100.00;98326.63;5030549;28;20191;-73
2021/07/17 04:58:51;;;;;;;110.30;17.40;;;;;;;18.77;100.00;98317.09;5032365;28;20591;-73
2021/07/17 05:01:18;;;;;;;151.40;18.10;;;;;;;18.82;100.00;98312.38;5029430;28;20048;-73
2021/07/17 05:03:43;;;;;;;109.40;15.95;;;;;;;18.89;100.00;98320.72;5025035;28;20029;-74
2021/07/17 05:06:09;;;;;;;109.38;17.00;;;;;;;18.66;100.00;98317.84;5034184;28;20037;-74
2021/07/17 05:08:34;;;;;;;85.25;15.70;;;;;;;18.68;100.00;98317.75;5039452;28;20022;-73
2021/07/17 05:10:59;;;;;;;83.95;15.57;;;;;;;18.73;100.00;98323.56;5033660;28;20045;-73
2021/07/17 05:13:25;;;;;;;86.80;15.75;;;;;;;18.85;100.00;98321.88;5036794;28;20024;-73
2021/07/17 05:15:50;;;;;;;88.15;15.85;;;;;;;18.73;100.00;98323.56;5035953;28;20033;-73
2021/07/17 05:18:16;;;;;;;98.93;16.05;;;;;;;18.87;100.00;98328.75;5034904;28;20159;-73
2021/07/17 05:20:42;;;;;;;81.43;16.33;;;;;;;18.78;100.00;98325.88;5037339;28;20372;-73
2021/07/17 05:23:08;;;;;;;96.13;16.15;;;;;;;18.83;100.00;98329.91;5035291;28;20057;-74
2021/07/17 05:25:34;;;;;;;93.45;16.15;;;;;;;18.76;100.00;98327.78;5034243;28;20036;-73
2021/07/17 05:27:59;;;;;;;77.68;14.35;;;;;;;18.90;100.00;98325.06;5036110;28;20025;-74
2021/07/17 05:30:24;;;;;;;84.75;15.15;;;;;;;18.99;100.00;98329.69;5035760;28;20653;-73
2021/07/17 05:32:50;;;;;;;80.57;15.82;;;;;;;18.76;100.00;98325.13;5036965;28;20025;-74
2021/07/17 05:35:15;;;;;;;89.13;16.25;;;;;;;18.81;100.00;98331.81;5035232;28;20024;-73
2021/07/17 05:37:41;;;;;;;110.50;16.80;;;;;;;19.00;100.00;98326.09;5034272;28;20075;-73
2021/07/17 05:40:07;;;;;;;100.43;16.45;;;;;;;18.91;100.00;98326.72;5032900;28;20419;-73
2021/07/17 05:42:33;;;;;;;86.47;16.60;;;;;;;19.00;100.00;98330.53;5036274;28;20735;-72
2021/07/17 05:44:58;;;;;;;79.85;16.55;;;;;;;18.85;100.00;98321.88;5035557;28;20025;-73
2021/07/17 05:47:24;;;;;;;94.78;16.23;;;;;;;19.06;100.00;98325.69;5036890;28;20037;-73
2021/07/17 05:49:49;;;;;;;90.57;16.45;;;;;;;18.96;100.00;98319.34;5036126;28;20132;-75
2021/07/17 05:52:14;;;;;;;94.97;16.70;;;;;;;18.89;100.00;98320.72;5035552;28;20037;-72
2021/07/17 05:54:40;;;;;;;114.75;18.15;;;;;;;18.88;100.00;98321.69;5036055;28;20020;-72
2021/07/17 05:57:06;;;;;;;78.43;16.15;;;;;;;18.99;100.00;98324.41;5037621;28;20047;-71
2021/07/17 05:59:32;;;;;;;79.95;16.60;;;;;;;19.05;100.00;98315.19;5034784;28;20040;-72
2021/07/17 06:01:57;;;;;;;88.57;16.88;;;;;;;18.98;100.00;98322.72;5034011;28;20121;-71
2021/07/17 06:04:23;;;;;;;96.22;16.83;;;;;;;19.12;100.00;98318.28;5038432;28;20028;-70
2021/07/17 06:06:48;;;;;;;101.22;16.48;;;;;;;19.07;100.00;98321.22;5035466;28;20045;-70
2021/07/17 06:09:13;;;;;;;108.63;17.58;;;;;;;18.77;100.00;98324.19;5042317;28;20033;-72
2021/07/17 06:11:39;;;;;;;102.85;17.38;;;;;;;18.85;100.00;98317.44;5038901;28;20047;-72
2021/07/17 06:14:04;;;;;;;98.07;17.17;;;;;;;18.91;100.00;98316.16;5039505;28;20020;-71
2021/07/17 06:16:29;;;;;;;94.80;16.23;;;;;;;19.05;100.00;98328.41;5041823;28;20507;-75
2021/07/17 06:18:55;;;;;;;110.50;17.25;;;;;;;19.07;100.00;98324.72;5036653;28;20547;-72
2021/07/17 06:21:20;;;;;;;130.88;19.60;;;;;;;18.72;100.00;98318.38;5037875;28;20131;-71
2021/07/17 06:23:45;;;;;;;112.05;17.98;;;;;;;18.75;100.00;98320.78;5038578;28;20592;-71
2021/07/17 06:26:11;;;;;;;112.75;18.10;;;;;;;18.67;100.00;98324.84;5035107;28;20540;-72
2021/07/17 06:28:37;;;;;;;109.80;19.10;;;;;;;18.30;100.00;98316.75;5035772;28;20584;-71
2021/07/17 06:31:03;;;;;;;105.63;18.33;;;;;;;18.57;100.00;98315.84;5037171;28;20037;-71
2021/07/17 06:33:28;;;;;;;104.43;17.83;;;;;;;18.61;100.00;98313.84;5035827;28;20052;-70
2021/07/17 06:35:54;;;;;;;117.63;19.10;;;;;;;18.69;100.00;98312.38;5035810;28;20048;-73
2021/07/17 06:38:19;;;;;;;114.10;17.90;;;;;;;18.77;100.00;98313.63;5034243;28;20021;-73
2021/07/17 06:40:45;;;;;;;113.97;18.10;;;;;;;18.79;100.00;98309.91;5035567;28;20174;-71
2021/07/17 06:43:10;;;;;;;129.90;18.27;;;;;;;18.76;100.00;98314.56;5038379;28;20583;-71
2021/07/17 06:45:35;;;;;;;114.22;17.85;;;;;;;18.75;100.00;98311.09;5034031;28;20427;-72
2021/07/17 06:48:01;;;;;;;100.63;17.63;;;;;;;18.86;100.00;98313.84;5037198;28;20505;-72
2021/07/17 06:50:26;;;;;;;115.50;18.70;;;;;;;19.06;100.00;98316.91;5038368;28;20063;-72
2021/07/17 06:52:51;;;;;;;113.38;17.55;;;;;;;18.88;100.00;98316.41;5035278;28;20037;-71
2021/07/17 06:55:17;;;;;;;127.57;18.95;;;;;;;18.90;100.00;98317.13;5034200;28;20044;-71
2021/07/17 06:57:45;;;;;;;107.40;17.67;;;;;;;18.90;100.00;98324.22;5042451;28;20013;-72
2021/07/17 07:00:12;;;;;;;125.80;18.33;;;;;;;18.97;100.00;98334.25;5036005;28;20033;-70
2021/07/17 07:02:38;;;;;;;113.45;17.15;;;;;;;19.10;100.00;98344.81;5036296;28;20025;-71
2021/07/17 07:05:06;;;;;;;109.32;17.02;;;;;;;19.05;100.00;98349.56;5035163;28;20036;-71
2021/07/17 07:07:32;;;;;;;107.30;16.70;;;;;;;19.28;100.00;98355.91;5033667;28;20040;-72
2021/07/17 07:09:58;;;;;;;112.25;16.70;;;;;;;19.13;100.00;98351.66;5038358;28;20029;-72
2021/07/17 07:12:23;;;;;;;110.70;16.17;;;;;;;19.19;100.00;98352.09;5034686;28;20044;-71
2021/07/17 07:14:49;;;;;;;101.45;16.08;;;;;;;19.12;100.00;98352.66;5034441;28;20029;-72
2021/07/17 07:17:14;;;;;;;108.72;15.82;;;;;;;19.36;100.00;98348.25;5034469;28;20087;-71
2021/07/17 07:19:40;;;;;;;123.57;16.25;;;;;;;19.42;100.00;98352.25;5037109;28;20031;-71
2021/07/17 07:22:05;;;;;;;97.03;15.07;;;;;;;19.03;100.00;98362.91;5033947;28;20048;-72
2021/07/17 07:24:31;;;;;;;99.75;15.23;;;;;;;19.16;100.00;98367.34;5036806;28;20037;-73
2021/07/17 07:26:57;;;;;;;97.93;15.23;;;;;;;19.04;100.00;98367.25;5035117;28;20639;-72
2021/07/17 07:29:24;;;;;;;105.72;15.85;;;;;;;19.07;100.00;98361.72;5035049;28;20107;-72
2021/07/17 07:31:50;;;;;;;96.72;15.45;;;;;;;19.09;100.00;98366.06;5033968;28;20041;-73
2021/07/17 07:34:16;;;;;;;103.30;15.55;;;;;;;19.02;100.00;98371.78;5034439;28;20059;-73
2021/07/17 07:36:41;;;;;;;114.20;16.40;;;;;;;19.08;100.00;98359.94;5035379;28;20072;-72
2021/07/17 07:39:07;;;;;;;104.55;16.35;;;;;;;19.06;100.00;98361.84;5038295;28;20025;-71
2021/07/17 07:41:32;;;;;;;102.38;17.02;;;;;;;19.25;99.72;98364.88;5035085;28;20040;-72
2021/07/17 07:43:57;;;;;;;100.53;16.27;;;;;;;19.24;100.00;98357.91;5034273;28;20116;-71
2021/07/17 07:46:23;;;;;;;106.05;16.17;;;;;;;19.37;100.00;98360.53;5035814;28;20629;-71
2021/07/17 07:48:48;;;;;;;102.90;16.27;;;;;;;19.54;100.00;98351.38;5035022;28;20024;-72
2021/07/17 07:51:16;;;;;;;116.22;16.30;;;;;;;19.41;99.52;98347.94;5035700;28;20044;-73
2021/07/17 07:53:41;;;;;;;105.28;16.73;;;;;;;19.64;99.61;98362.13;5037359;28;20056;-71
2021/07/17 07:56:07;;;;;;;102.18;16.88;;;;;;;19.80;98.89;98352.16;5035252;28;20132;-72
2021/07/17 07:58:32;;;;;;;89.63;15.43;;;;;;;19.80;98.86;98351.31;5035533;28;20079;-72
2021/07/17 08:00:58;;;;;;;98.18;15.82;;;;;;;19.80;99.20;98356.59;5033691;28;20100;-72
2021/07/17 08:03:23;;;;;;;96.20;16.50;;;;;;;19.65;100.00;98363.84;5035703;28;20489;-72
2021/07/17 08:05:48;;;;;;;90.88;16.25;;;;;;;19.63;97.77;98361.28;5033350;28;20614;-72
2021/07/17 08:08:14;;;;;;;116.25;16.98;;;;;;;19.49;100.00;98360.59;5035629;28;20112;-71
2021/07/17 08:10:39;;;;;;;102.70;17.65;;;;;;;19.32;100.00;98352.06;5036280;28;20115;-72
2021/07/17 08:13:05;;;;;;;101.28;16.58;;;;;;;19.62;99.99;98353.47;5037257;28;20036;-72
2021/07/17 08:15:33;;;;;;;109.45;17.33;;;;;;;19.67;99.60;98356.63;5034872;28;20037;-73
2021/07/17 08:17:58;;;;;;;95.30;17.05;;;;;;;19.55;99.00;98350.41;5035372;28;20683;-71
2021/07/17 08:20:24;;;;;;;82.38;16.10;;;;;;;19.69;99.76;98356.53;5035643;28;20095;-72
2021/07/17 08:22:50;;;;;;;93.32;16.52;;;;;;;19.73;97.22;98361.50;5034826;28;20039;-73
2021/07/17 08:25:16;;;;;;;133.63;18.55;;;;;;;19.84;96.78;98358.91;5032217;28;20021;-73
2021/07/17 08:27:41;;;;;;;132.20;18.42;;;;;;;19.74;98.08;98357.03;5036928;28;20032;-73
2021/07/17 08:30:09;;;;;;;106.95;16.95;;;;;;;19.87;98.82;98346.41;5033798;28;20073;-71
2021/07/17 08:32:34;;;;;;;94.18;16.02;;;;;;;20.02;97.11;98355.88;5033874;28;20021;-70
2021/07/17 08:34:59;;;;;;;95.60;16.50;;;;;;;20.11;95.04;98354.34;5040712;28;20033;-72
2021/07/17 08:37:25;;;;;;;103.95;18.17;;;;;;;20.14;94.59;98354.94;5035142;28;20558;-70
2021/07/17 08:39:50;;;;;;;97.15;15.50;;;;;;;20.40;95.52;98353.00;5034521;28;20025;-71
2021/07/17 08:42:17;;;;;;;108.32;16.67;;;;;;;20.40;95.20;98352.13;5041730;28;20071;-72
2021/07/17 08:44:46;;;;;;;94.95;16.15;;;;;;;20.47;93.94;98355.16;5034574;28;20021;-71
2021/07/17 08:47:13;;;;;;;108.68;16.33;;;;;;;20.52;94.59;98356.50;5032541;28;20433;-72
2021/07/17 08:49:39;;;;;;;117.80;16.52;;;;;;;20.35;96.66;98347.19;5034066;28;20025;-72
2021/07/17 08:52:05;;;;;;;99.18;16.15;;;;;;;20.48;95.26;98355.06;5033195;28;20033;-72
2021/07/17 08:54:31;;;;;;;116.55;16.50;;;;;;;20.23;96.25;98348.94;5034186;28;20064;-72
2021/07/17 08:56:57;;;;;;;97.30;16.27;;;;;;;20.27;96.71;98338.97;5034035;28;20037;-71
2021/07/17 08:59:22;;;;;;;96.97;16.15;;;;;;;20.15;97.33;98337.25;5034338;28;20036;-72
2021/07/17 09:01:49;;;;;;;111.22;16.83;;;;;;;20.23;96.62;98338.34;5029734;28;20040;-71
2021/07/17 09:04:15;;;;;;;98.72;15.52;;;;;;;20.43;93.96;98336.00;5034794;28;20059;-72
2021/07/17 09:06:40;;;;;;;111.95;16.20;;;;;;;20.38;95.08;98331.09;5033476;28;20033;-71
2021/07/17 09:09:06;;;;;;;112.45;16.02;;;;;;;20.30;95.87;98340.56;5031017;28;20540;-73
2021/07/17 09:11:37;;;;;;;141.23;17.17;;;;;;;20.58;96.42;98337.47;5028599;28;20047;-71
2021/07/17 09:14:03;;;;;;;102.80;15.18;;;;;;;20.72;92.86;98327.69;5031680;28;20509;-73
2021/07/17 09:16:31;;;;;;;136.20;16.98;;;;;;;20.82;94.14;98325.97;5034047;28;20033;-71
2021/07/17 09:18:56;;;;;;;122.35;16.60;;;;;;;20.79;93.12;98323.59;5034418;28;20029;-72
2021/07/17 09:21:26;;;;;;;102.90;15.82;;;;;;;21.16;91.79;98326.00;5037140;28;20667;-72
2021/07/17 09:23:52;;;;;;;104.38;15.38;;;;;;;21.04;90.66;98337.56;5034359;28;20055;-72
2021/07/17 09:26:30;;;;;;;111.10;15.88;;;;;;;20.94;93.05;98332.16;5033587;28;20041;-73
2021/07/17 09:29:06;;;;;;;105.90;15.25;;;;;;;20.79;92.50;98326.25;5035048;28;20035;-71
2021/07/17 09:31:34;;;;;;;98.22;15.30;;;;;;;20.89;92.25;98327.19;5033431;28;20491;-69
2021/07/17 09:34:08;;;;;;;95.55;14.13;;;;;;;20.80;93.39;98330.56;5036360;28;20037;-73
2021/07/17 09:36:47;;;;;;;102.18;14.57;;;;;;;21.03;91.98;98335.91;5030756;28;20064;-72
2021/07/17 09:39:17;;;;;;;108.43;15.07;;;;;;;21.15;92.02;98330.44;5033383;28;20061;-71
2021/07/17 09:42:05;;;;;;;109.28;14.85;;;;;;;21.18;90.91;98330.19;5037727;28;20917;-71
2021/07/17 09:44:32;;;;;;;86.40;13.60;;;;;;;21.22;91.40;98328.16;5039534;28;20029;-72
2021/07/17 09:46:58;;;;;;;101.97;15.07;;;;;;;21.21;91.95;98326.47;5037130;28;20116;-71
2021/07/17 09:49:25;;;;;;;98.70;14.00;;;;;;;21.22;90.52;98320.19;5037134;28;20412;-70
2021/07/17 09:52:17;;;;;;;140.75;16.00;;;;;;;21.07;92.92;98324.06;5035043;28;20060;-73
2021/07/17 09:55:06;;;;;;;112.88;15.35;;;;;;;20.94;91.87;98322.38;5037953;28;20717;-74
2021/07/17 09:57:32;;;;;;;98.07;14.05;;;;;;;20.85;93.23;98328.41;5036562;28;20033;-72
2021/07/17 10:00:16;;;;;;;91.15;13.85;;;;;;;21.05;91.88;98321.53;5037452;28;20037;-73
2021/07/17 10:02:41;;;;;;;100.50;14.88;;;;;;;21.07;92.34;98329.38;5035327;28;20495;-73
2021/07/17 10:05:08;;;;;;;100.05;15.02;;;;;;;21.10;92.90;98322.03;5036200;28;20048;-73
2021/07/17 10:07:34;;;;;;;121.47;14.80;;;;;;;21.03;92.73;98319.97;5036378;28;20017;-71
2021/07/17 10:10:00;;;;;;;93.25;14.10;;;;;;;20.83;95.73;98311.78;5036506;28;20040;-72
2021/07/17 10:12:37;;;;;;;108.30;14.43;;;;;;;20.95;91.46;98317.91;5036089;28;20033;-74
2021/07/17 10:15:05;;;;;;;82.40;13.38;;;;;;;21.15;91.13;98314.53;5036377;28;20216;-73
2021/07/17 10:17:39;;;;;;;96.18;14.32;;;;;;;21.04;90.43;98326.97;5035318;28;20045;-71
2021/07/17 10:20:06;;;;;;;91.63;13.63;;;;;;;21.05;90.74;98318.06;5035819;28;20037;-75
2021/07/17 10:22:32;;;;;;;95.07;13.27;;;;;;;21.26;90.04;98316.31;5037266;28;20056;-72
2021/07/17 10:24:57;;;;;;;102.07;12.85;;;;;;;21.64;88.63;98319.56;5035637;28;20211;-71
2021/07/17 10:27:23;;;;;;;92.10;13.63;;;;;;;21.54;91.12;98314.13;5036511;28;20947;-72
2021/07/17 10:29:50;;;;;;;93.90;13.45;;;;;;;21.30;90.71;98312.47;5037980;28;20040;-72
2021/07/17 10:32:16;;;;;;;97.78;13.50;;;;;;;21.30;91.10;98304.53;5035984;28;20036;-72
2021/07/17 10:34:44;;;;;;;111.88;14.10;;;;;;;21.17;92.04;98312.63;5036705;28;20029;-71
2021/07/17 10:37:13;;;;;;;92.13;13.00;;;;;;;21.18;92.83;98314.28;5036594;28;20671;-70
2021/07/17 10:39:44;;;;;;;133.18;14.80;;;;;;;21.00;92.76;98310.44;5032680;28;20112;-71
2021/07/17 10:42:17;;;;;;;102.53;13.75;;;;;;;20.85;90.88;98317.78;5033748;28;20030;-72
2021/07/17 10:44:51;;;;;;;135.45;14.38;;;;;;;20.92;91.88;98316.34;5037791;28;20032;-73
2021/07/17 10:47:19;;;;;;;98.28;12.80;;;;;;;20.86;94.79;98308.03;5034617;28;20603;-70
2021/07/17 10:49:52;;;;;;;113.72;13.88;;;;;;;20.88;95.30;98304.31;5036073;28;20045;-71
2021/07/17 10:52:43;;;;;;;132.60;14.90;;;;;;;20.98;93.96;98305.25;5034378;28;20041;-70
2021/07/17 10:55:27;;;;;;;107.22;13.75;;;;;;;21.04;93.20;98295.13;5033971;28;20032;-70
2021/07/17 10:57:54;;;;;;;93.47;12.65;;;;;;;20.84;94.90;98300.19;5036758;28;20743;-70
2021/07/17 11:00:41;;;;;;;82.75;12.57;;;;;;;21.18;93.27;98292.22;5036106;28;20732;-73
2021/07/17 11:03:13;;;;;;;93.35;13.05;;;;;;;20.90;93.53;98290.94;5032578;28;20629;-72
2021/07/17 11:05:38;;;;;;;;;;;;;;;21.07;91.96;98297.56;5033931;28;20129;-72
2021/07/17 11:08:38;;;;;;;103.40;12.93;;;;;;;20.76;94.64;98299.97;5048150;28;20423;-73